createdAt,value
2023-04-18T00:00:56.213Z,7.4045
2023-04-18T00:01:59.316Z,7.4230
2023-04-18T00:03:04.429Z,7.4367
2023-04-18T00:04:05.250Z,7.0823
2023-04-18T00:05:08.043Z,7.2079
2023-04-18T00:06:10.985Z,7.4248
2023-04-18T00:07:13.920Z,7.0949
2023-04-18T00:08:16.895Z,6.9921
2023-04-18T00:09:19.865Z,7.3874
2023-04-18T00:10:22.765Z,7.7627
2023-04-18T00:11:25.811Z,7.4839
2023-04-18T00:12:28.665Z,7.3059
2023-04-18T00:13:31.617Z,7.5855
2023-04-18T00:14:34.614Z,7.6290
2023-04-18T00:15:37.539Z,7.7990
2023-04-18T00:16:40.538Z,7.4416
2023-04-18T00:17:43.491Z,7.5297
2023-04-18T00:18:46.392Z,7.4736
2023-04-18T00:19:49.320Z,7.5684
2023-04-18T00:20:52.257Z,7.7034
2023-04-18T00:21:55.232Z,7.8750
2023-04-18T00:22:58.148Z,7.1091
2023-04-18T00:24:01.120Z,7.0573
2023-04-18T00:25:04.065Z,7.5662
2023-04-18T00:26:07.061Z,7.9438
2023-04-18T00:27:10.089Z,8.1580
2023-04-18T00:28:12.910Z,7.8374
2023-04-18T00:29:15.856Z,8.1450
2023-04-18T00:30:18.827Z,8.1353
2023-04-18T00:31:21.805Z,8.0915
2023-04-18T00:32:24.741Z,8.0584
2023-04-18T00:33:27.645Z,8.6154
2023-04-18T00:34:30.607Z,8.0027
2023-04-18T00:35:33.555Z,7.7907
2023-04-18T00:36:36.505Z,8.1145
2023-04-18T00:37:39.485Z,7.7915
2023-04-18T00:38:42.395Z,7.4991
2023-04-18T00:39:45.346Z,7.9262
2023-04-18T00:40:48.311Z,7.9408
2023-04-18T00:41:51.304Z,7.9049
2023-04-18T00:42:54.215Z,7.3830
2023-04-18T00:43:57.161Z,7.6909
2023-04-18T00:45:00.132Z,7.5527
2023-04-18T00:46:03.075Z,7.6216
2023-04-18T00:47:06.038Z,7.4479
2023-04-18T00:48:09.003Z,7.6671
2023-04-18T00:49:11.958Z,8.2096
2023-04-18T00:50:14.870Z,7.5693
2023-04-18T00:51:17.812Z,7.6897
2023-04-18T00:52:20.742Z,7.5180
2023-04-18T00:53:23.720Z,7.8222
2023-04-18T00:54:26.688Z,8.1641
2023-04-18T00:55:29.582Z,8.4435
2023-04-18T00:56:32.585Z,7.5901
2023-04-18T00:57:35.489Z,7.5336
2023-04-18T00:58:38.433Z,7.7717
2023-04-18T00:59:41.458Z,8.3056
2023-04-18T01:00:44.317Z,7.7905
2023-04-18T01:01:47.331Z,7.6841
2023-04-18T01:02:50.346Z,8.0608
2023-04-18T01:03:53.291Z,7.7988
2023-04-18T01:04:56.163Z,8.0309
2023-04-18T01:05:59.091Z,7.5821
2023-04-18T01:07:02.034Z,7.4647
2023-04-18T01:08:04.986Z,7.4521
2023-04-18T01:09:07.914Z,7.4877
2023-04-18T01:10:10.860Z,7.9977
2023-04-18T01:11:13.807Z,7.7638
2023-04-18T01:12:16.764Z,7.8685
2023-04-18T01:13:19.705Z,8.0017
2023-04-18T01:14:22.674Z,7.4002
2023-04-18T01:15:25.606Z,7.5485
2023-04-18T01:16:28.627Z,7.2095
2023-04-18T01:17:31.570Z,7.5491
2023-04-18T01:18:34.448Z,7.4309
2023-04-18T01:19:37.420Z,7.7602
2023-04-18T01:20:40.388Z,7.6820
2023-04-18T01:21:43.294Z,7.4976
2023-04-18T01:22:46.255Z,7.5715
2023-04-18T01:23:49.199Z,7.7732
2023-04-18T01:24:52.141Z,7.3341
2023-04-18T01:25:55.090Z,7.5276
2023-04-18T01:26:58.049Z,7.2764
2023-04-18T01:28:00.979Z,7.4459
2023-04-18T01:29:03.979Z,7.4969
2023-04-18T01:30:06.872Z,7.2174
2023-04-18T01:31:09.848Z,7.6111
2023-04-18T01:32:12.850Z,7.5822
2023-04-18T01:33:15.871Z,7.1640
2023-04-18T01:34:18.775Z,7.2956
2023-04-18T01:35:21.720Z,7.2158
2023-04-18T01:36:24.662Z,7.3115
2023-04-18T01:37:27.612Z,7.3604
2023-04-18T01:38:30.536Z,7.4434
2023-04-18T01:39:33.653Z,7.4284
2023-04-18T01:40:36.439Z,6.6801
2023-04-18T01:41:39.387Z,6.9957
2023-04-18T01:42:42.343Z,6.8670
2023-04-18T01:43:45.311Z,6.8344
2023-04-18T01:44:48.232Z,6.6105
2023-04-18T01:45:51.223Z,6.4754
2023-04-18T01:46:54.163Z,6.6748
2023-04-18T01:47:57.184Z,6.8039
2023-04-18T01:49:00.051Z,6.8336
2023-04-18T01:50:02.962Z,7.3321
2023-04-18T01:51:05.909Z,7.1922
2023-04-18T01:52:08.900Z,7.0789
2023-04-18T01:53:11.828Z,7.1920
2023-04-18T01:54:14.856Z,6.7506
2023-04-18T01:55:17.695Z,6.9315
2023-04-18T01:56:20.661Z,6.8024
2023-04-18T01:57:23.605Z,6.5475
2023-04-18T01:58:26.557Z,6.4134
2023-04-18T01:59:29.497Z,6.4138
2023-04-18T02:00:32.459Z,7.1423
2023-04-18T02:01:35.373Z,6.6449
2023-04-18T02:02:38.440Z,6.5775
2023-04-18T02:03:41.505Z,7.0003
2023-04-18T02:04:44.281Z,6.9703
2023-04-18T02:05:47.166Z,6.7273
2023-04-18T02:06:50.109Z,7.2319
2023-04-18T02:07:53.072Z,6.9152
2023-04-18T02:08:56.009Z,7.1135
2023-04-18T02:09:58.944Z,7.0629
2023-04-18T02:11:01.924Z,6.9713
2023-04-18T02:12:04.852Z,6.9805
2023-04-18T02:13:07.835Z,7.4116
2023-04-18T02:14:10.771Z,7.5603
2023-04-18T02:15:13.697Z,7.6640
2023-04-18T02:16:16.681Z,7.4350
2023-04-18T02:17:19.577Z,7.3267
2023-04-18T02:18:22.540Z,7.4700
2023-04-18T02:19:25.481Z,7.7573
2023-04-18T02:20:28.434Z,7.9471
2023-04-18T02:21:31.492Z,7.7650
2023-04-18T02:22:34.308Z,7.5107
2023-04-18T02:23:37.330Z,7.2044
2023-04-18T02:24:40.210Z,7.3113
2023-04-18T02:25:43.174Z,7.4910
2023-04-18T02:26:46.106Z,7.6426
2023-04-18T02:27:49.082Z,7.6904
2023-04-18T02:28:52.012Z,7.7615
2023-04-18T02:29:54.955Z,7.6418
2023-04-18T02:30:57.894Z,8.1815
2023-04-18T02:32:00.921Z,7.8509
2023-04-18T02:33:03.841Z,7.9157
2023-04-18T02:34:06.794Z,7.4016
2023-04-18T02:35:09.765Z,7.0628
2023-04-18T02:36:12.654Z,7.3552
2023-04-18T02:37:15.571Z,7.6008
2023-04-18T02:38:18.549Z,7.6777
2023-04-18T02:39:21.483Z,7.6279
2023-04-18T02:40:24.464Z,7.5553
2023-04-18T02:41:27.370Z,7.9391
2023-04-18T02:42:30.318Z,7.8783
2023-04-18T02:43:33.276Z,7.8928
2023-04-18T02:44:36.278Z,7.7375
2023-04-18T02:45:39.182Z,8.4600
2023-04-18T02:46:42.109Z,8.4102
2023-04-18T02:47:54.440Z,8.3294
2023-04-18T02:48:48.043Z,8.1706
2023-04-18T02:49:51.226Z,8.7135
2023-04-18T02:50:53.953Z,8.2245
2023-04-18T02:51:56.869Z,8.4718
2023-04-18T02:52:59.896Z,8.3302
2023-04-18T02:54:02.772Z,8.2373
2023-04-18T02:55:05.752Z,8.1827
2023-04-18T02:56:08.675Z,8.4945
2023-04-18T02:57:11.655Z,8.4617
2023-04-18T02:58:14.608Z,8.3980
2023-04-18T02:59:17.570Z,8.3035
2023-04-18T03:00:20.540Z,8.4117
2023-04-18T03:01:23.523Z,8.4615
2023-04-18T03:02:26.602Z,8.3740
2023-04-18T03:03:29.423Z,8.2935
2023-04-18T03:04:32.412Z,8.4286
2023-04-18T03:05:35.326Z,8.2218
2023-04-18T03:06:38.291Z,8.8425
2023-04-18T03:07:41.237Z,8.4957
2023-04-18T03:08:44.278Z,8.2825
2023-04-18T03:09:47.142Z,8.8917
2023-04-18T03:10:50.087Z,9.1475
2023-04-18T03:11:53.052Z,8.8700
2023-04-18T03:12:55.992Z,8.7354
2023-04-18T03:13:58.940Z,8.7542
2023-04-18T03:15:01.902Z,8.6947
2023-04-18T03:16:04.935Z,8.7094
2023-04-18T03:17:07.802Z,8.5335
2023-04-18T03:18:10.755Z,8.9377
2023-04-18T03:19:13.751Z,8.8737
2023-04-18T03:20:16.725Z,9.0242
2023-04-18T03:21:19.634Z,9.1145
2023-04-18T03:22:22.577Z,8.6927
2023-04-18T03:23:25.550Z,8.6066
2023-04-18T03:24:28.486Z,8.2637
2023-04-18T03:25:31.506Z,9.0041
2023-04-18T03:26:34.403Z,9.3929
2023-04-18T03:27:37.546Z,9.1341
2023-04-18T03:28:40.416Z,9.3106
2023-04-18T03:29:43.291Z,9.2231
2023-04-18T03:30:46.280Z,8.8971
2023-04-18T03:31:49.251Z,9.0413
2023-04-18T03:32:52.171Z,9.2197
2023-04-18T03:33:55.141Z,9.2962
2023-04-18T03:34:58.184Z,8.7438
2023-04-18T03:36:01.097Z,9.1102
2023-04-18T03:37:03.997Z,9.5467
2023-04-18T03:38:06.940Z,9.5069
2023-04-18T03:39:09.891Z,9.3667
2023-04-18T03:40:12.860Z,8.7724
2023-04-18T03:41:15.794Z,9.2669
2023-04-18T03:42:18.810Z,9.3907
2023-04-18T03:43:21.682Z,9.2886
2023-04-18T03:44:24.688Z,9.0320
2023-04-18T03:45:27.593Z,8.8456
2023-04-18T03:46:30.670Z,8.8284
2023-04-18T03:47:33.561Z,9.1473
2023-04-18T03:48:36.450Z,9.4061
2023-04-18T03:49:39.400Z,9.4295
2023-04-18T03:50:42.355Z,8.9779
2023-04-18T03:51:45.285Z,8.7177
2023-04-18T03:52:48.350Z,8.5545
2023-04-18T03:53:51.228Z,8.7569
2023-04-18T03:54:54.146Z,9.5068
2023-04-18T03:55:57.121Z,9.3109
2023-04-18T03:57:00.048Z,9.0802
2023-04-18T03:58:02.992Z,9.2214
2023-04-18T03:59:05.953Z,8.9809
2023-04-18T04:00:08.898Z,9.7629
2023-04-18T04:01:11.881Z,9.5155
2023-04-18T04:02:14.887Z,9.7480
2023-04-18T04:03:17.959Z,9.6149
2023-04-18T04:04:20.809Z,9.5184
2023-04-18T04:05:23.702Z,9.6102
2023-04-18T04:06:26.618Z,9.8076
2023-04-18T04:07:29.566Z,9.3447
2023-04-18T04:08:32.520Z,9.4050
2023-04-18T04:09:35.478Z,9.9767
2023-04-18T04:10:38.514Z,9.4099
2023-04-18T04:11:41.535Z,13.7496
2023-04-18T04:12:44.327Z,14.6259
2023-04-18T04:13:47.318Z,11.9648
2023-04-18T04:14:50.219Z,10.4305
2023-04-18T04:15:53.374Z,10.8284
2023-04-18T04:16:56.168Z,10.5352
2023-04-18T04:17:59.114Z,10.2407
2023-04-18T04:19:02.041Z,9.9366
2023-04-18T04:20:05.011Z,9.6584
2023-04-18T04:21:07.948Z,9.5259
2023-04-18T04:22:10.919Z,10.1275
2023-04-18T04:23:13.848Z,9.8650
2023-04-18T04:24:16.912Z,9.6324
2023-04-18T04:25:19.747Z,9.3734
2023-04-18T04:26:22.735Z,9.9473
2023-04-18T04:27:25.642Z,9.9230
2023-04-18T04:28:28.604Z,9.4749
2023-04-18T04:29:31.589Z,9.8162
2023-04-18T04:30:34.499Z,10.4918
2023-04-18T04:31:37.485Z,9.5663
2023-04-18T04:32:40.505Z,10.2176
2023-04-18T04:33:43.351Z,9.9994
2023-04-18T04:34:46.331Z,10.0292
2023-04-18T04:35:49.252Z,10.5766
2023-04-18T04:36:52.231Z,10.6252
2023-04-18T04:37:55.161Z,10.6313
2023-04-18T04:38:58.107Z,10.4925
2023-04-18T04:40:01.061Z,10.4883
2023-04-18T04:41:04.038Z,10.2439
2023-04-18T04:42:06.949Z,10.3235
2023-04-18T04:43:10.033Z,10.8455
2023-04-18T04:44:13.143Z,10.1769
2023-04-18T04:45:15.884Z,10.8678
2023-04-18T04:46:18.820Z,10.1508
2023-04-18T04:47:21.718Z,10.7137
2023-04-18T04:48:24.677Z,10.1213
2023-04-18T04:49:27.654Z,10.3026
2023-04-18T04:50:30.601Z,10.4530
2023-04-18T04:51:33.521Z,10.5939
2023-04-18T04:52:36.467Z,11.3614
2023-04-18T04:53:39.421Z,10.2961
2023-04-18T04:54:42.373Z,10.8411
2023-04-18T04:55:45.309Z,10.6781
2023-04-18T04:56:48.257Z,10.5301
2023-04-18T04:57:51.219Z,10.8013
2023-04-18T04:58:54.222Z,10.6784
2023-04-18T04:59:57.113Z,11.1577
2023-04-18T05:01:00.058Z,10.8907
2023-04-18T05:02:03.175Z,11.3100
2023-04-18T05:03:06.028Z,10.6353
2023-04-18T05:04:08.985Z,10.3597
2023-04-18T05:05:11.939Z,10.4902
2023-04-18T05:06:14.873Z,10.5714
2023-04-18T05:07:17.779Z,10.9849
2023-04-18T05:08:20.721Z,10.2669
2023-04-18T05:09:23.678Z,11.0709
2023-04-18T05:10:26.616Z,10.3367
2023-04-18T05:11:29.565Z,11.3857
2023-04-18T05:12:32.525Z,10.6143
2023-04-18T05:13:35.486Z,10.9023
2023-04-18T05:14:38.452Z,10.5901
2023-04-18T05:15:41.371Z,11.3533
2023-04-18T05:16:44.368Z,10.9716
2023-04-18T05:17:47.312Z,10.4851
2023-04-18T05:18:50.221Z,10.7301
2023-04-18T05:19:53.196Z,10.7907
2023-04-18T05:20:56.133Z,10.7404
2023-04-18T05:21:59.079Z,10.8168
2023-04-18T05:23:02.042Z,10.4692
2023-04-18T05:24:04.957Z,11.4212
2023-04-18T05:25:07.917Z,10.7472
2023-04-18T05:26:10.877Z,11.3035
2023-04-18T05:27:13.872Z,11.1962
2023-04-18T05:28:16.779Z,11.4974
2023-04-18T05:29:19.712Z,11.2800
2023-04-18T05:30:22.729Z,10.6269
2023-04-18T05:31:25.634Z,11.5847
2023-04-18T05:32:28.583Z,11.3343
2023-04-18T05:33:31.524Z,11.3854
2023-04-18T05:34:35.319Z,11.6733
2023-04-18T05:35:37.418Z,11.4339
2023-04-18T05:36:40.344Z,10.9703
2023-04-18T05:37:43.320Z,10.9174
2023-04-18T05:38:46.246Z,10.7034
2023-04-18T05:39:49.298Z,10.7132
2023-04-18T05:40:52.227Z,11.4797
2023-04-18T05:41:55.175Z,10.8714
2023-04-18T05:42:58.128Z,11.4089
2023-04-18T05:44:05.319Z,11.1080
2023-04-18T05:45:04.049Z,11.1773
2023-04-18T05:46:07.026Z,10.4104
2023-04-18T05:47:09.950Z,10.2297
2023-04-18T05:48:12.931Z,10.7455
2023-04-18T05:49:15.859Z,11.0914
2023-04-18T05:50:18.788Z,10.9066
2023-04-18T05:51:21.738Z,11.4562
2023-04-18T05:52:24.675Z,11.2396
2023-04-18T05:53:27.654Z,10.9122
2023-04-18T05:54:30.581Z,11.2128
2023-04-18T05:55:33.514Z,11.0303
2023-04-18T05:56:36.477Z,10.9584
2023-04-18T05:57:39.417Z,11.0181
2023-04-18T05:58:42.392Z,11.6433
2023-04-18T05:59:45.340Z,11.9584
2023-04-18T06:00:48.294Z,11.5632
2023-04-18T06:01:51.286Z,11.7182
2023-04-18T06:02:54.320Z,11.7439
2023-04-18T06:03:57.456Z,10.7025
2023-04-18T06:05:00.267Z,11.5121
2023-04-18T06:06:03.152Z,11.2908
2023-04-18T06:07:05.969Z,11.5901
2023-04-18T06:08:08.908Z,11.3994
2023-04-18T06:09:11.868Z,11.6795
2023-04-18T06:10:14.825Z,11.0966
2023-04-18T06:11:17.766Z,11.2474
2023-04-18T06:12:20.693Z,12.1359
2023-04-18T06:13:23.650Z,11.6738
2023-04-18T06:14:26.592Z,10.8824
2023-04-18T06:15:29.552Z,11.2955
2023-04-18T06:16:32.522Z,11.0413
2023-04-18T06:17:35.465Z,11.6530
2023-04-18T06:18:38.411Z,11.2029
2023-04-18T06:19:41.341Z,11.4081
2023-04-18T06:20:44.337Z,11.4717
2023-04-18T06:21:47.246Z,12.3093
2023-04-18T06:22:50.219Z,12.0079
2023-04-18T06:23:53.144Z,10.9932
2023-04-18T06:24:56.092Z,10.9497
2023-04-18T06:25:59.055Z,11.2423
2023-04-18T06:27:02.012Z,11.1679
2023-04-18T06:28:04.932Z,11.7036
2023-04-18T06:29:07.882Z,11.3202
2023-04-18T06:30:10.824Z,11.3904
2023-04-18T06:31:13.849Z,10.9720
2023-04-18T06:32:16.713Z,11.0051
2023-04-18T06:33:19.687Z,10.3110
2023-04-18T06:34:22.617Z,11.3010
2023-04-18T06:35:26.723Z,11.2440
2023-04-18T06:36:28.499Z,11.4964
2023-04-18T06:37:31.436Z,11.5837
2023-04-18T06:38:34.396Z,10.9330
2023-04-18T06:39:37.319Z,10.8115
2023-04-18T06:40:40.278Z,10.9563
2023-04-18T06:41:43.218Z,11.2159
2023-04-18T06:42:46.181Z,11.4253
2023-04-18T06:44:02.019Z,11.4890
2023-04-18T06:44:52.075Z,10.7873
2023-04-18T06:45:55.024Z,11.6661
2023-04-18T06:46:57.980Z,11.0956
2023-04-18T06:48:00.936Z,10.4976
2023-04-18T06:49:03.928Z,11.3973
2023-04-18T06:50:06.833Z,11.2136
2023-04-18T06:51:09.785Z,11.1264
2023-04-18T06:52:12.746Z,11.7530
2023-04-18T06:53:15.676Z,11.1054
2023-04-18T06:54:18.635Z,11.2189
2023-04-18T06:55:21.599Z,11.6128
2023-04-18T06:56:24.517Z,11.1378
2023-04-18T06:57:27.482Z,11.1664
2023-04-18T06:58:30.414Z,11.6110
2023-04-18T06:59:33.369Z,10.8195
2023-04-18T07:00:36.330Z,11.4014
2023-04-18T07:01:39.346Z,11.2269
2023-04-18T07:02:42.399Z,10.6474
2023-04-18T07:03:45.217Z,11.3354
2023-04-18T07:04:48.384Z,11.2409
2023-04-18T07:05:51.083Z,11.2913
2023-04-18T07:06:53.991Z,11.3635
2023-04-18T07:07:56.950Z,11.3637
2023-04-18T07:08:59.943Z,11.5657
2023-04-18T07:10:02.864Z,11.3621
2023-04-18T07:11:05.816Z,11.7925
2023-04-18T07:12:08.764Z,11.6882
2023-04-18T07:13:11.738Z,11.5109
2023-04-18T07:14:14.958Z,11.5959
2023-04-18T07:15:17.584Z,11.5923
2023-04-18T07:16:20.617Z,11.4274
2023-04-18T07:17:23.494Z,11.6098
2023-04-18T07:18:36.773Z,11.5110
2023-04-18T07:19:29.375Z,11.2975
2023-04-18T07:20:32.358Z,10.7538
2023-04-18T07:21:35.379Z,11.4069
2023-04-18T07:22:38.219Z,10.8534
2023-04-18T07:23:41.147Z,10.7883
2023-04-18T07:24:44.136Z,10.3984
2023-04-18T07:25:47.074Z,10.2579
2023-04-18T07:26:50.003Z,10.8325
2023-04-18T07:27:52.948Z,10.4992
2023-04-18T07:28:55.888Z,10.1750
2023-04-18T07:29:58.858Z,9.4131
2023-04-18T07:31:01.881Z,9.1175
2023-04-18T07:32:06.195Z,9.6167
2023-04-18T07:33:07.696Z,10.7570
2023-04-18T07:34:10.657Z,11.2133
2023-04-18T07:35:13.601Z,11.1592
2023-04-18T07:36:16.536Z,10.4725
2023-04-18T07:37:19.493Z,10.3761
2023-04-18T07:38:22.436Z,9.7425
2023-04-18T07:39:25.386Z,9.6132
2023-04-18T07:40:28.344Z,9.4495
2023-04-18T07:41:31.295Z,9.9936
2023-04-18T07:42:34.230Z,9.4528
2023-04-18T07:43:37.190Z,9.9114
2023-04-18T07:44:40.113Z,9.7873
2023-04-18T07:45:43.103Z,10.3288
2023-04-18T07:46:46.092Z,9.8095
2023-04-18T07:47:48.976Z,9.8170
2023-04-18T07:48:51.900Z,9.3015
2023-04-18T07:49:54.857Z,9.3737
2023-04-18T07:50:57.825Z,9.6518
2023-04-18T07:52:00.728Z,9.2970
2023-04-18T07:53:03.680Z,9.1086
2023-04-18T07:54:06.656Z,8.6172
2023-04-18T07:55:09.696Z,8.8909
2023-04-18T07:56:12.563Z,9.4342
2023-04-18T07:57:15.482Z,9.0189
2023-04-18T07:58:18.422Z,8.4643
2023-04-18T07:59:21.383Z,8.9759
2023-04-18T08:00:24.386Z,9.0043
2023-04-18T08:01:27.307Z,9.3621
2023-04-18T08:02:30.330Z,9.3068
2023-04-18T08:03:33.315Z,9.3598
2023-04-18T08:04:36.222Z,10.2765
2023-04-18T08:05:39.100Z,10.0878
2023-04-18T08:06:42.013Z,9.7461
2023-04-18T08:07:44.941Z,9.9490
2023-04-18T08:08:47.889Z,9.4096
2023-04-18T08:09:50.845Z,9.1359
2023-04-18T08:10:53.861Z,9.8817
2023-04-18T08:11:56.757Z,9.6810
2023-04-18T08:12:59.687Z,9.9649
2023-04-18T08:14:02.645Z,9.8157
2023-04-18T08:15:05.599Z,9.7634
2023-04-18T08:16:08.586Z,9.1890
2023-04-18T08:17:11.489Z,9.8917
2023-04-18T08:18:14.438Z,9.5932
2023-04-18T08:19:17.398Z,9.9205
2023-04-18T08:20:20.401Z,10.2326
2023-04-18T08:21:23.300Z,10.3883
2023-04-18T08:22:26.241Z,10.3150
2023-04-18T08:23:29.266Z,10.0658
2023-04-18T08:24:32.144Z,10.4632
2023-04-18T08:25:35.080Z,10.2076
2023-04-18T08:26:38.107Z,10.4793
2023-04-18T08:27:40.991Z,10.3988
2023-04-18T08:28:45.951Z,10.4156
2023-04-18T08:29:46.994Z,10.7037
2023-04-18T08:30:49.844Z,10.5237
2023-04-18T08:31:52.901Z,10.3212
2023-04-18T08:32:55.738Z,10.1070
2023-04-18T08:33:58.679Z,10.0347
2023-04-18T08:35:01.657Z,10.0655
2023-04-18T08:36:04.592Z,10.4352
2023-04-18T08:37:07.521Z,9.7952
2023-04-18T08:38:10.479Z,9.9540
2023-04-18T08:39:13.897Z,9.9265
2023-04-18T08:40:16.371Z,10.0249
2023-04-18T08:41:19.328Z,10.2128
2023-04-18T08:42:22.247Z,9.9910
2023-04-18T08:43:25.238Z,10.3606
2023-04-18T08:44:28.198Z,10.6819
2023-04-18T08:45:31.177Z,10.1528
2023-04-18T08:46:34.156Z,10.4110
2023-04-18T08:47:37.124Z,11.1437
2023-04-18T08:48:39.941Z,9.7851
2023-04-18T08:49:43.031Z,10.0920
2023-04-18T08:50:45.852Z,10.3702
2023-04-18T08:51:48.807Z,9.9431
2023-04-18T08:52:51.733Z,9.0946
2023-04-18T08:53:54.692Z,9.8756
2023-04-18T08:54:57.720Z,9.5833
2023-04-18T08:56:00.609Z,9.6662
2023-04-18T08:57:03.564Z,9.9365
2023-04-18T08:58:06.494Z,10.1622
2023-04-18T08:59:09.439Z,9.7113
2023-04-18T09:00:12.387Z,9.9071
2023-04-18T09:01:15.380Z,9.7120
2023-04-18T09:02:18.315Z,9.3540
2023-04-18T09:03:21.347Z,9.2748
2023-04-18T09:04:24.205Z,8.9539
2023-04-18T09:05:27.112Z,8.8890
2023-04-18T09:06:30.084Z,9.5135
2023-04-18T09:07:33.128Z,9.6172
2023-04-18T09:08:36.001Z,9.8676
2023-04-18T09:09:38.920Z,9.6351
2023-04-18T09:10:42.798Z,10.0457
2023-04-18T09:11:44.803Z,10.0545
2023-04-18T09:12:47.765Z,9.8843
2023-04-18T09:13:50.725Z,9.6677
2023-04-18T09:14:53.666Z,9.3859
2023-04-18T09:15:56.637Z,9.6894
2023-04-18T09:16:59.626Z,9.5779
2023-04-18T09:18:02.771Z,9.5833
2023-04-18T09:19:06.890Z,9.8306
2023-04-18T09:20:08.418Z,9.2039
2023-04-18T09:21:11.355Z,8.9409
2023-04-18T09:22:14.328Z,8.9898
2023-04-18T09:23:17.272Z,9.4138
2023-04-18T09:24:20.243Z,9.6149
2023-04-18T09:25:23.199Z,9.5620
2023-04-18T09:26:26.211Z,9.9793
2023-04-18T09:27:29.058Z,9.6663
2023-04-18T09:28:31.990Z,9.3243
2023-04-18T09:29:34.972Z,9.2039
2023-04-18T09:30:37.977Z,9.8561
2023-04-18T09:31:40.845Z,9.6225
2023-04-18T09:32:43.853Z,9.1833
2023-04-18T09:33:46.732Z,9.7881
2023-04-18T09:34:49.670Z,9.7080
2023-04-18T09:35:52.623Z,10.0556
2023-04-18T09:36:55.656Z,9.9742
2023-04-18T09:37:58.526Z,8.7879
2023-04-18T09:39:01.486Z,9.7962
2023-04-18T09:40:04.411Z,10.1033
2023-04-18T09:41:07.383Z,10.0065
2023-04-18T09:42:10.303Z,9.4119
2023-04-18T09:43:13.272Z,10.1394
2023-04-18T09:44:16.210Z,9.8800
2023-04-18T09:45:19.149Z,9.9664
2023-04-18T09:46:22.110Z,10.2491
2023-04-18T09:47:25.072Z,9.9915
2023-04-18T09:48:28.119Z,9.3324
2023-04-18T09:49:31.033Z,9.8054
2023-04-18T09:50:33.954Z,9.5502
2023-04-18T09:51:36.882Z,9.6301
2023-04-18T09:52:39.858Z,9.3949
2023-04-18T09:53:42.807Z,9.0644
2023-04-18T09:54:48.122Z,9.6964
2023-04-18T09:55:48.666Z,9.7823
2023-04-18T09:56:51.638Z,9.4793
2023-04-18T09:57:54.566Z,8.8403
2023-04-18T09:58:57.520Z,8.9882
2023-04-18T10:00:00.508Z,9.6298
2023-04-18T10:01:03.486Z,9.1178
2023-04-18T10:02:06.564Z,9.8418
2023-04-18T10:03:09.419Z,9.6365
2023-04-18T10:04:12.525Z,9.5083
2023-04-18T10:05:15.258Z,9.1898
2023-04-18T10:06:18.150Z,8.9746
2023-04-18T10:07:21.106Z,8.9169
2023-04-18T10:08:24.081Z,8.7632
2023-04-18T10:09:27.000Z,8.5697
2023-04-18T10:10:29.957Z,8.5267
2023-04-18T10:11:32.906Z,7.8569
2023-04-18T10:12:35.839Z,8.0254
2023-04-18T10:13:38.951Z,8.1610
2023-04-18T10:14:41.733Z,7.6510
2023-04-18T10:15:45.326Z,7.5152
2023-04-18T10:16:49.268Z,7.6269
2023-04-18T10:18:02.814Z,7.7780
2023-04-18T10:18:53.547Z,8.3377
2023-04-18T10:19:56.479Z,8.7668
2023-04-18T10:20:59.427Z,8.4876
2023-04-18T10:22:02.410Z,9.0183
2023-04-18T10:23:05.341Z,8.7992
2023-04-18T10:24:08.299Z,8.6321
2023-04-18T10:25:11.214Z,9.2835
2023-04-18T10:26:14.187Z,8.7166
2023-04-18T10:27:17.108Z,8.6816
2023-04-18T10:28:20.090Z,8.7206
2023-04-18T10:29:23.002Z,8.7714
2023-04-18T10:30:25.969Z,9.0296
2023-04-18T10:31:28.979Z,8.7439
2023-04-18T10:32:31.881Z,8.7961
2023-04-18T10:33:34.862Z,8.8353
2023-04-18T10:34:37.805Z,8.5669
2023-04-18T10:35:41.398Z,9.1427
2023-04-18T10:36:43.653Z,9.0840
2023-04-18T10:37:46.614Z,8.9467
2023-04-18T10:38:49.600Z,8.9510
2023-04-18T10:39:52.528Z,9.4170
2023-04-18T10:40:55.471Z,8.7723
2023-04-18T10:41:58.380Z,8.8390
2023-04-18T10:43:01.345Z,8.8882
2023-04-18T10:44:04.701Z,8.7104
2023-04-18T10:45:07.405Z,8.0742
2023-04-18T10:46:17.323Z,8.2468
2023-04-18T10:47:13.133Z,8.3505
2023-04-18T10:48:16.097Z,8.1559
2023-04-18T10:49:19.034Z,8.6036
2023-04-18T10:50:21.959Z,8.4615
2023-04-18T10:51:24.930Z,8.3857
2023-04-18T10:52:27.870Z,8.9695
2023-04-18T10:53:30.890Z,9.5469
2023-04-18T10:54:33.763Z,9.1444
2023-04-18T10:55:36.711Z,9.2590
2023-04-18T10:56:39.661Z,8.7663
2023-04-18T10:57:42.614Z,8.5717
2023-04-18T10:58:45.596Z,8.3016
2023-04-18T10:59:48.513Z,8.2786
2023-04-18T11:00:51.547Z,9.1024
2023-04-18T11:01:54.438Z,8.1606
2023-04-18T11:02:57.452Z,8.2567
2023-04-18T11:04:00.456Z,8.7905
2023-04-18T11:05:03.244Z,8.6561
2023-04-18T11:06:06.202Z,8.0675
2023-04-18T11:07:09.181Z,8.5760
2023-04-18T11:08:12.110Z,8.5030
2023-04-18T11:09:15.086Z,8.9179
2023-04-18T11:10:18.036Z,8.5503
2023-04-18T11:11:20.953Z,8.6196
2023-04-18T11:12:23.952Z,8.1079
2023-04-18T11:13:26.845Z,8.5927
2023-04-18T11:14:29.801Z,8.1817
2023-04-18T11:15:32.741Z,8.6300
2023-04-18T11:16:35.926Z,8.3928
2023-04-18T11:17:38.649Z,8.1161
2023-04-18T11:18:41.595Z,7.7773
2023-04-18T11:19:44.569Z,7.8834
2023-04-18T11:20:47.503Z,7.5985
2023-04-18T11:21:50.437Z,7.9104
2023-04-18T11:22:53.407Z,7.6753
2023-04-18T11:23:56.332Z,8.2209
2023-04-18T11:24:59.283Z,8.3413
2023-04-18T11:26:02.356Z,8.4478
2023-04-18T11:27:05.252Z,8.4811
2023-04-18T11:28:08.192Z,8.8722
2023-04-18T11:29:11.090Z,8.6598
2023-04-18T11:30:14.031Z,9.1266
2023-04-18T11:31:17.014Z,8.3093
2023-04-18T11:32:19.974Z,8.2785
2023-04-18T11:33:22.968Z,8.3907
2023-04-18T11:34:25.815Z,8.5180
2023-04-18T11:35:28.817Z,9.1324
2023-04-18T11:36:31.737Z,8.8943
2023-04-18T11:37:34.689Z,8.7692
2023-04-18T11:38:37.616Z,8.3363
2023-04-18T11:39:40.567Z,8.2795
2023-04-18T11:40:43.516Z,7.9089
2023-04-18T11:41:46.500Z,8.4738
2023-04-18T11:42:49.420Z,8.3263
2023-04-18T11:43:52.406Z,8.2919
2023-04-18T11:44:55.316Z,8.9672
2023-04-18T11:45:58.307Z,8.5721
2023-04-18T11:47:01.219Z,7.6617
2023-04-18T11:48:04.241Z,8.3463
2023-04-18T11:49:07.132Z,7.9990
2023-04-18T11:50:10.202Z,8.7421
2023-04-18T11:51:13.058Z,8.2357
2023-04-18T11:52:15.963Z,8.4023
2023-04-18T11:53:18.909Z,8.1075
2023-04-18T11:54:21.890Z,8.1511
2023-04-18T11:55:24.816Z,8.3992
2023-04-18T11:56:28.102Z,7.6549
2023-04-18T11:57:30.717Z,8.0488
2023-04-18T11:58:33.692Z,8.3605
2023-04-18T11:59:36.638Z,8.5572
2023-04-18T12:00:39.679Z,8.1204
2023-04-18T12:01:42.520Z,7.9303
2023-04-18T12:02:45.575Z,7.6655
2023-04-18T12:03:48.716Z,8.1048
2023-04-18T12:04:51.659Z,7.7713
2023-04-18T12:05:54.476Z,8.0833
2023-04-18T12:06:57.296Z,7.8699
2023-04-18T12:08:00.258Z,7.3466
2023-04-18T12:09:03.217Z,7.4436
2023-04-18T12:10:06.183Z,7.6869
2023-04-18T12:11:09.143Z,7.1302
2023-04-18T12:12:12.082Z,6.8617
2023-04-18T12:13:15.048Z,7.4752
2023-04-18T12:14:18.002Z,6.9277
2023-04-18T12:15:20.968Z,7.6081
2023-04-18T12:16:23.953Z,7.2975
2023-04-18T12:17:26.942Z,7.5629
2023-04-18T12:18:29.868Z,7.2356
2023-04-18T12:19:32.830Z,7.4297
2023-04-18T12:20:35.743Z,7.8828
2023-04-18T12:21:38.708Z,8.0467
2023-04-18T12:22:41.669Z,7.7139
2023-04-18T12:23:44.607Z,7.8748
2023-04-18T12:24:47.581Z,8.3165
2023-04-18T12:25:50.516Z,8.0873
2023-04-18T12:26:53.578Z,8.0952
2023-04-18T12:27:56.514Z,9.1896
2023-04-18T12:28:59.405Z,9.0017
2023-04-18T12:30:02.343Z,8.7409
2023-04-18T12:31:05.328Z,8.6370
2023-04-18T12:32:08.256Z,8.6286
2023-04-18T12:33:11.228Z,8.9214
2023-04-18T12:34:14.348Z,8.5294
2023-04-18T12:35:17.144Z,8.5180
2023-04-18T12:36:20.065Z,8.1808
2023-04-18T12:37:23.027Z,8.6677
2023-04-18T12:38:26.000Z,8.7680
2023-04-18T12:39:28.976Z,9.0033
2023-04-18T12:40:32.081Z,8.7802
2023-04-18T12:41:34.843Z,8.5027
2023-04-18T12:42:37.793Z,8.3406
2023-04-18T12:43:40.769Z,8.3959
2023-04-18T12:44:43.944Z,8.2059
2023-04-18T12:45:46.722Z,7.9786
2023-04-18T12:46:49.745Z,7.8034
2023-04-18T12:47:52.750Z,8.2003
2023-04-18T12:48:55.586Z,8.6642
2023-04-18T12:49:58.499Z,8.5162
2023-04-18T12:51:01.438Z,8.4881
2023-04-18T12:52:04.406Z,7.9527
2023-04-18T12:53:07.455Z,8.2492
2023-04-18T12:54:10.415Z,8.5555
2023-04-18T12:55:13.258Z,8.6112
2023-04-18T12:56:16.235Z,7.3187
2023-04-18T12:57:19.229Z,7.5465
2023-04-18T12:58:22.145Z,7.8734